sensor_id;sensor_type;location;lat;lon;timestamp;P1;durP1;ratioP1;P2;durP2;ratioP2
48285;SDS011;34102;47.716;10.296;2023-03-23T04:48:41;3.88;;;2.65;;
48285;SDS011;34102;47.716;10.296;2023-03-23T04:51:57;4.63;;;3.05;;
48285;SDS011;34102;47.716;10.296;2023-03-23T04:57:50;6.32;;;3.20;;
48285;SDS011;34102;47.716;10.296;2023-03-23T05:00:31;3.97;;;2.58;;
48285;SDS011;34102;47.716;10.296;2023-03-23T05:02:57;5.35;;;2.83;;
48285;SDS011;34102;47.716;10.296;2023-03-23T05:08:06;4.88;;;2.90;;
48285;SDS011;34102;47.716;10.296;2023-03-23T05:10:36;7.75;;;4.88;;
48285;SDS011;34102;47.716;10.296;2023-03-23T05:16:25;3.78;;;2.70;;
48285;SDS011;34102;47.716;10.296;2023-03-23T05:21:56;5.53;;;2.80;;
48285;SDS011;34102;47.716;10.296;2023-03-23T05:24:41;3.67;;;2.80;;
48285;SDS011;34102;47.716;10.296;2023-03-23T05:35:30;7.03;;;2.95;;
48285;SDS011;34102;47.716;10.296;2023-03-23T05:37:55;14.18;;;2.83;;
48285;SDS011;34102;47.716;10.296;2023-03-23T05:40:33;4.38;;;2.55;;
48285;SDS011;34102;47.716;10.296;2023-03-23T05:43:12;5.57;;;2.70;;
48285;SDS011;34102;47.716;10.296;2023-03-23T05:45:46;5.68;;;2.65;;
48285;SDS011;34102;47.716;10.296;2023-03-23T05:48:12;3.55;;;2.45;;
48285;SDS011;34102;47.716;10.296;2023-03-23T05:50:44;3.63;;;2.50;;
48285;SDS011;34102;47.716;10.296;2023-03-23T05:53:10;4.70;;;2.25;;
48285;SDS011;34102;47.716;10.296;2023-03-23T05:55:42;7.57;;;2.70;;
48285;SDS011;34102;47.716;10.296;2023-03-23T05:58:37;5.75;;;2.20;;
48285;SDS011;34102;47.716;10.296;2023-03-23T06:01:07;2.78;;;1.65;;
48285;SDS011;34102;47.716;10.296;2023-03-23T06:03:36;3.17;;;2.15;;
48285;SDS011;34102;47.716;10.296;2023-03-23T06:06:21;2.30;;;1.42;;
48285;SDS011;34102;47.716;10.296;2023-03-23T06:09:18;1.77;;;1.40;;
48285;SDS011;34102;47.716;10.296;2023-03-23T06:12:02;5.72;;;3.35;;
48285;SDS011;34102;47.716;10.296;2023-03-23T06:25:33;3.30;;;2.05;;
48285;SDS011;34102;47.716;10.296;2023-03-23T06:28:08;3.13;;;1.88;;
48285;SDS011;34102;47.716;10.296;2023-03-23T06:31:01;3.55;;;2.25;;
48285;SDS011;34102;47.716;10.296;2023-03-23T06:33:39;2.95;;;2.25;;
48285;SDS011;34102;47.716;10.296;2023-03-23T06:36:30;5.97;;;2.83;;
48285;SDS011;34102;47.716;10.296;2023-03-23T06:50:00;4.13;;;2.45;;
48285;SDS011;34102;47.716;10.296;2023-03-23T06:52:29;5.95;;;2.35;;
48285;SDS011;34102;47.716;10.296;2023-03-23T11:33:01;2.75;;;1.75;;
48285;SDS011;34102;47.716;10.296;2023-03-23T11:35:27;2.95;;;1.90;;
48285;SDS011;34102;47.716;10.296;2023-03-23T11:37:59;3.95;;;1.52;;
48285;SDS011;34102;47.716;10.296;2023-03-23T11:40:50;4.18;;;1.60;;
48285;SDS011;34102;47.716;10.296;2023-03-23T11:43:50;2.50;;;1.60;;
48285;SDS011;34102;47.716;10.296;2023-03-23T11:46:19;3.17;;;1.30;;
48285;SDS011;34102;47.716;10.296;2023-03-23T11:49:01;4.28;;;1.05;;
48285;SDS011;34102;47.716;10.296;2023-03-23T11:51:33;2.05;;;1.13;;
48285;SDS011;34102;47.716;10.296;2023-03-23T11:54:15;2.15;;;1.30;;
48285;SDS011;34102;47.716;10.296;2023-03-23T11:56:43;9.10;;;3.03;;
48285;SDS011;34102;47.716;10.296;2023-03-23T11:59:10;1.30;;;0.85;;
48285;SDS011;34102;47.716;10.296;2023-03-23T12:09:38;2.85;;;0.70;;
48285;SDS011;34102;47.716;10.296;2023-03-23T12:22:39;3.92;;;1.02;;
48285;SDS011;34102;47.716;10.296;2023-03-23T12:30:31;2.67;;;1.13;;
48285;SDS011;34102;47.716;10.296;2023-03-23T12:35:43;3.88;;;1.65;;
48285;SDS011;34102;47.716;10.296;2023-03-23T12:48:56;2.13;;;1.00;;
48285;SDS011;34102;47.716;10.296;2023-03-23T12:53:23;1.75;;;1.20;;
48285;SDS011;34102;47.716;10.296;2023-03-23T12:56:10;2.83;;;1.45;;
48285;SDS011;34102;47.716;10.296;2023-03-23T12:58:39;2.58;;;1.40;;
48285;SDS011;34102;47.716;10.296;2023-03-23T13:04:29;3.75;;;1.77;;
48285;SDS011;34102;47.716;10.296;2023-03-23T13:06:47;3.50;;;1.20;;
48285;SDS011;34102;47.716;10.296;2023-03-23T13:09:27;2.42;;;1.50;;
48285;SDS011;34102;47.716;10.296;2023-03-23T13:11:56;4.93;;;1.20;;
48285;SDS011;34102;47.716;10.296;2023-03-23T13:14:32;3.95;;;1.10;;
48285;SDS011;34102;47.716;10.296;2023-03-23T13:24:56;4.13;;;1.35;;
48285;SDS011;34102;47.716;10.296;2023-03-23T13:27:25;3.90;;;1.00;;
48285;SDS011;34102;47.716;10.296;2023-03-23T13:29:56;1.85;;;1.10;;
48285;SDS011;34102;47.716;10.296;2023-03-23T13:32:44;1.63;;;1.10;;
48285;SDS011;34102;47.716;10.296;2023-03-23T13:35:13;2.35;;;1.25;;
48285;SDS011;34102;47.716;10.296;2023-03-23T13:37:46;3.65;;;1.42;;
48285;SDS011;34102;47.716;10.296;2023-03-23T13:42:57;3.28;;;1.20;;
48285;SDS011;34102;47.716;10.296;2023-03-23T13:45:34;3.92;;;1.52;;
48285;SDS011;34102;47.716;10.296;2023-03-23T13:48:05;3.33;;;1.50;;
48285;SDS011;34102;47.716;10.296;2023-03-23T13:50:43;2.67;;;1.13;;
48285;SDS011;34102;47.716;10.296;2023-03-23T13:53:20;1.98;;;1.50;;
48285;SDS011;34102;47.716;10.296;2023-03-23T13:55:50;2.60;;;1.70;;
48285;SDS011;34102;47.716;10.296;2023-03-23T13:58:25;1.70;;;1.02;;
48285;SDS011;34102;47.716;10.296;2023-03-23T14:01:11;2.53;;;1.38;;
48285;SDS011;34102;47.716;10.296;2023-03-23T14:03:41;1.98;;;1.00;;
48285;SDS011;34102;47.716;10.296;2023-03-23T14:06:12;1.08;;;0.73;;
48285;SDS011;34102;47.716;10.296;2023-03-23T14:09:03;2.80;;;1.20;;
48285;SDS011;34102;47.716;10.296;2023-03-23T14:11:30;3.00;;;0.95;;
48285;SDS011;34102;47.716;10.296;2023-03-23T14:14:01;1.20;;;0.85;;
48285;SDS011;34102;47.716;10.296;2023-03-23T14:16:31;1.83;;;1.33;;
48285;SDS011;34102;47.716;10.296;2023-03-23T14:18:58;3.63;;;1.15;;
48285;SDS011;34102;47.716;10.296;2023-03-23T14:21:33;7.22;;;1.38;;
48285;SDS011;34102;47.716;10.296;2023-03-23T14:24:00;2.10;;;1.10;;
48285;SDS011;34102;47.716;10.296;2023-03-23T14:26:25;2.47;;;0.85;;
48285;SDS011;34102;47.716;10.296;2023-03-23T14:28:53;1.80;;;0.90;;
48285;SDS011;34102;47.716;10.296;2023-03-23T14:31:23;3.03;;;1.13;;
48285;SDS011;34102;47.716;10.296;2023-03-23T14:33:48;2.63;;;0.88;;
48285;SDS011;34102;47.716;10.296;2023-03-23T14:36:19;1.88;;;0.90;;
48285;SDS011;34102;47.716;10.296;2023-03-23T14:38:44;2.42;;;0.80;;
48285;SDS011;34102;47.716;10.296;2023-03-23T14:41:10;1.42;;;0.98;;
48285;SDS011;34102;47.716;10.296;2023-03-23T14:43:36;3.08;;;1.20;;
48285;SDS011;34102;47.716;10.296;2023-03-23T14:46:04;2.78;;;1.08;;
48285;SDS011;34102;47.716;10.296;2023-03-23T14:48:30;1.55;;;0.75;;
48285;SDS011;34102;47.716;10.296;2023-03-23T14:51:00;2.47;;;1.27;;
48285;SDS011;34102;47.716;10.296;2023-03-23T14:53:39;3.92;;;1.20;;
48285;SDS011;34102;47.716;10.296;2023-03-23T14:56:12;7.75;;;1.52;;
48285;SDS011;34102;47.716;10.296;2023-03-23T14:58:38;2.70;;;1.10;;
48285;SDS011;34102;47.716;10.296;2023-03-23T15:01:09;2.25;;;0.93;;
48285;SDS011;34102;47.716;10.296;2023-03-23T15:03:43;2.92;;;1.40;;
48285;SDS011;34102;47.716;10.296;2023-03-23T15:06:14;4.25;;;1.27;;
48285;SDS011;34102;47.716;10.296;2023-03-23T15:08:40;3.08;;;1.20;;
48285;SDS011;34102;47.716;10.296;2023-03-23T15:11:13;2.80;;;1.13;;
48285;SDS011;34102;47.716;10.296;2023-03-23T15:13:47;2.38;;;0.98;;
48285;SDS011;34102;47.716;10.296;2023-03-23T15:16:21;2.78;;;0.95;;
48285;SDS011;34102;47.716;10.296;2023-03-23T15:18:49;1.95;;;1.20;;
48285;SDS011;34102;47.716;10.296;2023-03-23T15:21:27;2.58;;;0.93;;
48285;SDS011;34102;47.716;10.296;2023-03-23T15:23:54;2.25;;;1.00;;
48285;SDS011;34102;47.716;10.296;2023-03-23T15:26:33;3.75;;;1.35;;
48285;SDS011;34102;47.716;10.296;2023-03-23T15:31:31;2.55;;;1.30;;
48285;SDS011;34102;47.716;10.296;2023-03-23T15:33:58;4.45;;;1.25;;
48285;SDS011;34102;47.716;10.296;2023-03-23T15:36:25;2.33;;;1.10;;
48285;SDS011;34102;47.716;10.296;2023-03-23T15:38:50;4.60;;;1.80;;
48285;SDS011;34102;47.716;10.296;2023-03-23T15:41:23;5.40;;;1.52;;
48285;SDS011;34102;47.716;10.296;2023-03-23T15:43:54;1.95;;;1.20;;
48285;SDS011;34102;47.716;10.296;2023-03-23T15:46:23;3.92;;;1.20;;
48285;SDS011;34102;47.716;10.296;2023-03-23T15:51:24;5.35;;;1.10;;
48285;SDS011;34102;47.716;10.296;2023-03-23T15:53:50;3.20;;;1.30;;
48285;SDS011;34102;47.716;10.296;2023-03-23T15:56:16;5.82;;;1.30;;
48285;SDS011;34102;47.716;10.296;2023-03-23T15:58:42;3.58;;;1.40;;
48285;SDS011;34102;47.716;10.296;2023-03-23T16:01:11;3.47;;;1.67;;
48285;SDS011;34102;47.716;10.296;2023-03-23T16:03:42;2.63;;;1.30;;
48285;SDS011;34102;47.716;10.296;2023-03-23T16:06:09;2.85;;;1.13;;
48285;SDS011;34102;47.716;10.296;2023-03-23T16:08:35;2.55;;;1.75;;
48285;SDS011;34102;47.716;10.296;2023-03-23T16:11:14;2.45;;;1.58;;
48285;SDS011;34102;47.716;10.296;2023-03-23T16:13:40;4.97;;;1.52;;
48285;SDS011;34102;47.716;10.296;2023-03-23T16:16:06;5.15;;;1.20;;
48285;SDS011;34102;47.716;10.296;2023-03-23T16:18:32;3.38;;;1.25;;
48285;SDS011;34102;47.716;10.296;2023-03-23T16:20:58;3.53;;;2.03;;
48285;SDS011;34102;47.716;10.296;2023-03-23T16:23:23;3.72;;;2.00;;
48285;SDS011;34102;47.716;10.296;2023-03-23T16:25:48;2.03;;;1.42;;
48285;SDS011;34102;47.716;10.296;2023-03-23T16:28:14;3.35;;;2.20;;
48285;SDS011;34102;47.716;10.296;2023-03-23T16:30:40;3.92;;;1.60;;
48285;SDS011;34102;47.716;10.296;2023-03-23T16:33:06;3.72;;;2.10;;
48285;SDS011;34102;47.716;10.296;2023-03-23T16:35:32;2.88;;;2.35;;
48285;SDS011;34102;47.716;10.296;2023-03-23T16:37:57;2.30;;;1.55;;
48285;SDS011;34102;47.716;10.296;2023-03-23T16:40:23;3.97;;;2.00;;
48285;SDS011;34102;47.716;10.296;2023-03-23T16:42:49;3.65;;;1.55;;
48285;SDS011;34102;47.716;10.296;2023-03-23T16:45:15;9.40;;;2.05;;
48285;SDS011;34102;47.716;10.296;2023-03-23T16:47:41;3.03;;;2.08;;
48285;SDS011;34102;47.716;10.296;2023-03-23T16:50:07;3.13;;;1.88;;
48285;SDS011;34102;47.716;10.296;2023-03-23T16:52:39;3.65;;;1.80;;
48285;SDS011;34102;47.716;10.296;2023-03-23T16:55:08;2.70;;;1.60;;
48285;SDS011;34102;47.716;10.296;2023-03-23T16:57:34;4.50;;;2.03;;
48285;SDS011;34102;47.716;10.296;2023-03-23T17:00:03;3.25;;;1.92;;
48285;SDS011;34102;47.716;10.296;2023-03-23T17:02:30;6.00;;;2.30;;
48285;SDS011;34102;47.716;10.296;2023-03-23T17:04:58;4.60;;;1.85;;
48285;SDS011;34102;47.716;10.296;2023-03-23T17:07:24;6.25;;;2.05;;
48285;SDS011;34102;47.716;10.296;2023-03-23T17:09:49;2.58;;;1.88;;
48285;SDS011;34102;47.716;10.296;2023-03-23T17:12:15;3.22;;;1.95;;
48285;SDS011;34102;47.716;10.296;2023-03-23T17:14:43;4.95;;;2.38;;
48285;SDS011;34102;47.716;10.296;2023-03-23T17:17:08;6.28;;;2.00;;
48285;SDS011;34102;47.716;10.296;2023-03-23T17:19:34;2.60;;;1.80;;
48285;SDS011;34102;47.716;10.296;2023-03-23T17:21:59;2.92;;;1.85;;
48285;SDS011;34102;47.716;10.296;2023-03-23T17:24:28;3.38;;;1.85;;
48285;SDS011;34102;47.716;10.296;2023-03-23T17:26:54;3.33;;;1.77;;
48285;SDS011;34102;47.716;10.296;2023-03-23T17:29:19;4.57;;;1.80;;
48285;SDS011;34102;47.716;10.296;2023-03-23T17:31:46;3.28;;;2.25;;
48285;SDS011;34102;47.716;10.296;2023-03-23T17:34:12;5.10;;;1.95;;
48285;SDS011;34102;47.716;10.296;2023-03-23T17:36:37;3.25;;;1.77;;
48285;SDS011;34102;47.716;10.296;2023-03-23T17:39:03;5.95;;;2.05;;
48285;SDS011;34102;47.716;10.296;2023-03-23T17:41:28;4.35;;;2.03;;
48285;SDS011;34102;47.716;10.296;2023-03-23T17:43:53;3.08;;;1.70;;
48285;SDS011;34102;47.716;10.296;2023-03-23T17:46:19;3.03;;;1.95;;
48285;SDS011;34102;47.716;10.296;2023-03-23T17:48:44;5.47;;;2.10;;
48285;SDS011;34102;47.716;10.296;2023-03-23T17:51:10;4.20;;;1.88;;
48285;SDS011;34102;47.716;10.296;2023-03-23T17:53:35;5.18;;;2.20;;
48285;SDS011;34102;47.716;10.296;2023-03-23T17:56:01;4.47;;;2.45;;
48285;SDS011;34102;47.716;10.296;2023-03-23T17:58:27;8.25;;;2.60;;
48285;SDS011;34102;47.716;10.296;2023-03-23T18:00:53;4.50;;;2.30;;
48285;SDS011;34102;47.716;10.296;2023-03-23T18:03:18;4.30;;;2.30;;
48285;SDS011;34102;47.716;10.296;2023-03-23T18:05:46;5.07;;;2.85;;
48285;SDS011;34102;47.716;10.296;2023-03-23T18:08:14;4.82;;;2.55;;
48285;SDS011;34102;47.716;10.296;2023-03-23T18:10:39;4.65;;;2.55;;
48285;SDS011;34102;47.716;10.296;2023-03-23T18:13:05;3.47;;;2.40;;
48285;SDS011;34102;47.716;10.296;2023-03-23T18:15:31;4.60;;;2.40;;
48285;SDS011;34102;47.716;10.296;2023-03-23T18:18:00;4.20;;;2.55;;
48285;SDS011;34102;47.716;10.296;2023-03-23T18:20:27;7.22;;;3.83;;
48285;SDS011;34102;47.716;10.296;2023-03-23T18:22:53;5.68;;;3.90;;
48285;SDS011;34102;47.716;10.296;2023-03-23T18:25:18;5.03;;;3.10;;
48285;SDS011;34102;47.716;10.296;2023-03-23T18:27:44;2.95;;;2.15;;
48285;SDS011;34102;47.716;10.296;2023-03-23T18:30:09;3.58;;;2.67;;
48285;SDS011;34102;47.716;10.296;2023-03-23T18:32:38;5.40;;;2.53;;
48285;SDS011;34102;47.716;10.296;2023-03-23T18:35:04;4.93;;;2.90;;
48285;SDS011;34102;47.716;10.296;2023-03-23T18:37:30;7.38;;;2.97;;
48285;SDS011;34102;47.716;10.296;2023-03-23T18:39:55;4.97;;;2.67;;
48285;SDS011;34102;47.716;10.296;2023-03-23T18:42:20;4.63;;;2.88;;
48285;SDS011;34102;47.716;10.296;2023-03-23T18:44:46;3.88;;;2.03;;
48285;SDS011;34102;47.716;10.296;2023-03-23T18:47:11;6.63;;;4.38;;
48285;SDS011;34102;47.716;10.296;2023-03-23T18:49:37;3.63;;;2.50;;
48285;SDS011;34102;47.716;10.296;2023-03-23T18:52:03;3.42;;;2.30;;
48285;SDS011;34102;47.716;10.296;2023-03-23T18:54:28;4.82;;;2.67;;
48285;SDS011;34102;47.716;10.296;2023-03-23T18:56:57;4.72;;;2.72;;
48285;SDS011;34102;47.716;10.296;2023-03-23T18:59:22;6.70;;;3.03;;
48285;SDS011;34102;47.716;10.296;2023-03-23T19:01:49;5.70;;;3.45;;
48285;SDS011;34102;47.716;10.296;2023-03-23T19:04:16;5.22;;;3.00;;
48285;SDS011;34102;47.716;10.296;2023-03-23T19:06:47;4.15;;;2.92;;
48285;SDS011;34102;47.716;10.296;2023-03-23T19:09:13;5.45;;;2.63;;
48285;SDS011;34102;47.716;10.296;2023-03-23T19:11:38;6.28;;;3.10;;
48285;SDS011;34102;47.716;10.296;2023-03-23T19:14:04;7.22;;;4.95;;
48285;SDS011;34102;47.716;10.296;2023-03-23T19:16:30;8.10;;;3.30;;
48285;SDS011;34102;47.716;10.296;2023-03-23T19:18:56;5.78;;;3.05;;
48285;SDS011;34102;47.716;10.296;2023-03-23T19:21:21;4.13;;;2.40;;
48285;SDS011;34102;47.716;10.296;2023-03-23T19:23:47;4.70;;;2.75;;
48285;SDS011;34102;47.716;10.296;2023-03-23T19:26:30;5.18;;;2.45;;
48285;SDS011;34102;47.716;10.296;2023-03-23T19:28:56;12.80;;;2.97;;
48285;SDS011;34102;47.716;10.296;2023-03-23T19:31:22;3.22;;;2.50;;
48285;SDS011;34102;47.716;10.296;2023-03-23T19:33:49;4.55;;;3.20;;
48285;SDS011;34102;47.716;10.296;2023-03-23T19:36:15;6.40;;;3.45;;
48285;SDS011;34102;47.716;10.296;2023-03-23T19:38:43;4.15;;;2.70;;
48285;SDS011;34102;47.716;10.296;2023-03-23T19:41:08;4.25;;;2.92;;
48285;SDS011;34102;47.716;10.296;2023-03-23T19:43:34;6.68;;;2.85;;
48285;SDS011;34102;47.716;10.296;2023-03-23T19:45:59;5.80;;;3.00;;
48285;SDS011;34102;47.716;10.296;2023-03-23T19:48:25;7.57;;;2.88;;
48285;SDS011;34102;47.716;10.296;2023-03-23T19:50:50;6.40;;;4.07;;
48285;SDS011;34102;47.716;10.296;2023-03-23T19:53:17;6.82;;;4.40;;
48285;SDS011;34102;47.716;10.296;2023-03-23T19:55:43;11.30;;;5.05;;
48285;SDS011;34102;47.716;10.296;2023-03-23T19:58:08;9.35;;;6.55;;
48285;SDS011;34102;47.716;10.296;2023-03-23T20:00:34;8.52;;;6.18;;
48285;SDS011;34102;47.716;10.296;2023-03-23T20:02:59;7.63;;;5.28;;
48285;SDS011;34102;47.716;10.296;2023-03-23T20:05:25;6.10;;;3.63;;
48285;SDS011;34102;47.716;10.296;2023-03-23T20:07:51;5.63;;;3.40;;
48285;SDS011;34102;47.716;10.296;2023-03-23T20:10:17;2.88;;;2.55;;
48285;SDS011;34102;47.716;10.296;2023-03-23T20:12:42;3.65;;;2.47;;
48285;SDS011;34102;47.716;10.296;2023-03-23T20:15:08;5.07;;;2.55;;
48285;SDS011;34102;47.716;10.296;2023-03-23T20:17:33;3.67;;;2.20;;
48285;SDS011;34102;47.716;10.296;2023-03-23T20:19:59;7.15;;;2.45;;
48285;SDS011;34102;47.716;10.296;2023-03-23T20:22:24;6.82;;;2.33;;
48285;SDS011;34102;47.716;10.296;2023-03-23T20:24:50;4.45;;;2.53;;
48285;SDS011;34102;47.716;10.296;2023-03-23T20:27:16;8.82;;;3.67;;
48285;SDS011;34102;47.716;10.296;2023-03-23T20:29:42;4.18;;;2.75;;
48285;SDS011;34102;47.716;10.296;2023-03-23T20:32:08;4.75;;;2.97;;
48285;SDS011;34102;47.716;10.296;2023-03-23T20:34:34;8.00;;;3.10;;
48285;SDS011;34102;47.716;10.296;2023-03-23T20:37:00;6.88;;;4.50;;
48285;SDS011;34102;47.716;10.296;2023-03-23T20:39:27;4.65;;;2.97;;
48285;SDS011;34102;47.716;10.296;2023-03-23T20:41:54;3.92;;;2.85;;
48285;SDS011;34102;47.716;10.296;2023-03-23T20:44:23;4.95;;;3.05;;
48285;SDS011;34102;47.716;10.296;2023-03-23T20:46:49;7.00;;;3.65;;
48285;SDS011;34102;47.716;10.296;2023-03-23T20:49:16;6.00;;;3.58;;
48285;SDS011;34102;47.716;10.296;2023-03-23T20:51:42;7.07;;;3.83;;
48285;SDS011;34102;47.716;10.296;2023-03-23T20:54:09;6.55;;;4.00;;
48285;SDS011;34102;47.716;10.296;2023-03-23T20:56:34;6.45;;;3.60;;
48285;SDS011;34102;47.716;10.296;2023-03-23T20:59:00;4.82;;;3.08;;
48285;SDS011;34102;47.716;10.296;2023-03-23T21:01:26;5.75;;;3.22;;
48285;SDS011;34102;47.716;10.296;2023-03-23T21:03:52;6.05;;;3.38;;
48285;SDS011;34102;47.716;10.296;2023-03-23T21:06:18;5.75;;;3.47;;
48285;SDS011;34102;47.716;10.296;2023-03-23T21:08:44;5.22;;;3.13;;
48285;SDS011;34102;47.716;10.296;2023-03-23T21:11:12;4.85;;;3.50;;
48285;SDS011;34102;47.716;10.296;2023-03-23T21:13:38;6.78;;;3.42;;
48285;SDS011;34102;47.716;10.296;2023-03-23T21:16:03;5.47;;;3.55;;
48285;SDS011;34102;47.716;10.296;2023-03-23T21:18:29;5.32;;;3.30;;
48285;SDS011;34102;47.716;10.296;2023-03-23T21:20:55;5.38;;;3.35;;
48285;SDS011;34102;47.716;10.296;2023-03-23T21:23:21;5.43;;;3.50;;
48285;SDS011;34102;47.716;10.296;2023-03-23T21:25:50;5.13;;;3.30;;
48285;SDS011;34102;47.716;10.296;2023-03-23T21:28:16;5.47;;;3.28;;
